Dauntless Aviation
Airports North America United States Wyoming
KBPI
BPI
BPI

MILEY MEML FLD AIRPORT

BIG PINEY, WY, USA

Airport Info
Suggest Updated Information for this Airport

Location

Latitude / Longitude: 42°34'55"N / 110°6'31"W
  42°34.9333'N / 110°6.5317'W
  42.5822 / -110.1089
Elevation: 6993.6 ft. (surveyed)
Variation: 16E (1975)
From city: 03 miles N of BIG PINEY, WY

Operations

Facility use: Open to the public
Sectional chart: SALT LAKE CITY
Control tower: no
Boundary ARTCC: SALT LAKE CITY
Responsible ARTCC: SALT LAKE CITY
FSS: CASPER [1-800-WX-BRIEF]
NOTAMs facility: BPI (NOTAM-D service available)
Segmented circle: yes
Lights: SEE RMK
Beacon: CLEAR-GREEN (LIGHTED LAND AIRPORT)
Landing fee: no

Communications

UNICOM: 122.800
CTAF: 122.800

Nearby radio navigation aids

VOR radial/distance VOR name Freq Var
BPI at field BIG PINEY VOR/DME 116.50 16E
 
NDB name Hdg/Dist Freq Var ID
WENZ 226oT/18.7 392 13E PNA

Services

Fuel available: 100LLA
Airframe service: NONE
Powerplant service: NONE
Bottled oxygen: NONE
Bulk oxygen: NONE

Runway Information

Runway 08/26

Dimensions: 3301 x 60 ft.
Surface: GRASS; SOD,NATURAL SOIL,GOOD CONDITION,NO SPECIAL SURFACE TREATMENT
 
Runway 08
Runway 26
Latitude: 42-34-35.9442N 42-34-33.9768N
Longitude: 110-06-37.0437W 110-05-53.0157W
Elevation: 6943.4 ft. 6935.8 ft.
Traffic pattern: left left
Runway true heading: 093 273
Markings: , in fair condition , in fair condition
 

Runway 13/31

Dimensions: 6803 x 75 ft.
Surface: ASPHALT OR BITUMINOUS CONCRETE,GOOD CONDITION,NO SPECIAL SURFACE TREATMENT
Edge lights: MEDIUM
 
Runway 13
Runway 31
Latitude: 42-35-34.6396N 42-34-37.8631N
Longitude: 110-07-04.4406W 110-06-15.8623W
Elevation: 6993.6 ft. 6948.8 ft.
Traffic pattern: left left
Runway true heading: 148 328
Markings: nonprecision instrument, in good condition nonprecision instrument, in good condition
Visual slope indicator: 2-LGT PAPI ON LEFT SIDE OF RUNWAY (3.00 degrees glide path) 2-LGT PAPI ON LEFT SIDE OF RUNWAY (3.00 degrees glide path)
Runway end identifier lights: yes yes
 

Operational Statistics

Annual operations: 2544
Air taxi: 35
Local: 680
Itinerant: 1810
Military: 19

Additional Remarks

  • RY 08/26 NO LINE OF SIGHT.
  • FOR CD IF UNA TO CTC ON FSS FREQ, CTC SALT LAKE ARTCC AT 801-320-2568.

Instrument Procedures

Effective Mar 25, 2021 to Apr 21, 2021

IAPs (Instrument Approach Procedures)

   RNAV (GPS) RWY 31 (PDF)
   VOR RWY 31 (PDF)
   TAKEOFF MINIMUMS (PDF)
   ALTERNATE MINIMUMS (PDF)
 
    Legends & General Information
    Airport Diagram Legend
Topographic chart at:
Satellite photo at:
Airport distance calculator
From:
Weather Reports

METAR

KBPI

KBPI 170453Z AUTO 16011KT 10SM FEW038 BKN046 M02/M04 A3024 RMK AO2 SLP256 T10221039
KPNA
18.9nm NE
KPNA 170510Z AUTO 00000KT 10SM BKN065 M02/M11 A3025 RMK AO2
KAFO
38.0nm W
KAFO 170515Z AUTO 00000KT 10SM OVC090 M01/M05 A3021 RMK AO2

TAF

KBPI
KBPI 162320Z 1700/1724 20006KT P6SM VCSH BKN080 FM170200 30006KT P6SM SCT050 FM170900 VRB04KT P6SM SKC FM172100 34007KT P6SM SKC
KPNA
18.9nm NE
KPNA 162320Z 1700/1724 29008KT P6SM VCSH BKN060 FM170500 30005KT P6SM SCT050 FM170900 VRB04KT P6SM SKC FM172100 32007KT P6SM SKC
Safelog

 

Dauntless Aviation

© 2007-2021 Dauntless Aviation, all rights reserved
Information provided via PilotNav comes from a variety of official and unofficial data sources. As errors are possible, do not use PilotNav for primary flight planning purposes. Verify any information that you receive via PilotNav with current and canonical charts and other official documents. The material in this database is subject to database copyrights held by Dauntless Aviation and may not be copied without the express permission of Dauntless Aviation - licenses for use of part of all of this data are available for purchase; enquire via the Dauntless Aviation helpdesk. A number of mechanisms and markers exist in the database to protect against and identify infringement / copyright. Automated queries against this website are strictly prohibited, and all activity is logged and analyzed.